sensor_id;sensor_type;location;lat;lon;timestamp;P1;durP1;ratioP1;P2;durP2;ratioP2
62509;SDS011;48558;48.242;11.654;2022-10-31T00:02:21;5.18;;;3.00;;
62509;SDS011;48558;48.242;11.654;2022-10-31T00:06:33;5.97;;;3.42;;
62509;SDS011;48558;48.242;11.654;2022-10-31T00:10:46;7.65;;;4.10;;
62509;SDS011;48558;48.242;11.654;2022-10-31T00:14:58;9.45;;;4.15;;
62509;SDS011;48558;48.242;11.654;2022-10-31T00:19:11;9.93;;;3.80;;
62509;SDS011;48558;48.242;11.654;2022-10-31T00:23:23;9.55;;;3.63;;
62509;SDS011;48558;48.242;11.654;2022-10-31T00:27:39;5.32;;;3.50;;
62509;SDS011;48558;48.242;11.654;2022-10-31T00:31:54;6.47;;;3.35;;
62509;SDS011;48558;48.242;11.654;2022-10-31T00:36:07;13.55;;;4.30;;
62509;SDS011;48558;48.242;11.654;2022-10-31T00:40:22;5.82;;;3.65;;
62509;SDS011;48558;48.242;11.654;2022-10-31T00:44:34;5.10;;;3.28;;
62509;SDS011;48558;48.242;11.654;2022-10-31T00:48:46;5.10;;;3.28;;
62509;SDS011;48558;48.242;11.654;2022-10-31T00:52:59;6.90;;;3.85;;
62509;SDS011;48558;48.242;11.654;2022-10-31T00:57:11;5.63;;;3.35;;
62509;SDS011;48558;48.242;11.654;2022-10-31T01:01:23;6.82;;;3.90;;
62509;SDS011;48558;48.242;11.654;2022-10-31T01:05:36;7.90;;;3.75;;
62509;SDS011;48558;48.242;11.654;2022-10-31T01:09:49;8.25;;;3.75;;
62509;SDS011;48558;48.242;11.654;2022-10-31T01:14:02;11.65;;;4.47;;
62509;SDS011;48558;48.242;11.654;2022-10-31T01:18:14;5.63;;;3.70;;
62509;SDS011;48558;48.242;11.654;2022-10-31T01:22:26;8.23;;;4.07;;
62509;SDS011;48558;48.242;11.654;2022-10-31T01:26:39;11.85;;;4.78;;
62509;SDS011;48558;48.242;11.654;2022-10-31T01:30:51;9.35;;;4.22;;
62509;SDS011;48558;48.242;11.654;2022-10-31T01:35:03;5.80;;;4.00;;
62509;SDS011;48558;48.242;11.654;2022-10-31T01:39:16;7.72;;;4.50;;
62509;SDS011;48558;48.242;11.654;2022-10-31T01:47:59;6.68;;;3.95;;
62509;SDS011;48558;48.242;11.654;2022-10-31T01:56:38;5.32;;;3.90;;
62509;SDS011;48558;48.242;11.654;2022-10-31T02:00:57;8.35;;;4.05;;
62509;SDS011;48558;48.242;11.654;2022-10-31T02:05:27;9.02;;;4.22;;
62509;SDS011;48558;48.242;11.654;2022-10-31T02:09:41;7.35;;;4.05;;
62509;SDS011;48558;48.242;11.654;2022-10-31T02:13:58;5.43;;;3.80;;
62509;SDS011;48558;48.242;11.654;2022-10-31T02:18:12;11.25;;;3.88;;
62509;SDS011;48558;48.242;11.654;2022-10-31T02:22:28;8.32;;;4.00;;
62509;SDS011;48558;48.242;11.654;2022-10-31T02:27:07;8.75;;;3.75;;
62509;SDS011;48558;48.242;11.654;2022-10-31T02:35:49;8.80;;;3.72;;
62509;SDS011;48558;48.242;11.654;2022-10-31T02:40:14;7.80;;;3.70;;
62509;SDS011;48558;48.242;11.654;2022-10-31T02:44:39;6.18;;;4.00;;
62509;SDS011;48558;48.242;11.654;2022-10-31T02:48:54;8.27;;;4.00;;
62509;SDS011;48558;48.242;11.654;2022-10-31T02:53:13;6.65;;;3.78;;
62509;SDS011;48558;48.242;11.654;2022-10-31T02:57:28;5.22;;;3.22;;
62509;SDS011;48558;48.242;11.654;2022-10-31T03:02:05;7.03;;;3.65;;
62509;SDS011;48558;48.242;11.654;2022-10-31T03:06:35;9.80;;;3.97;;
62509;SDS011;48558;48.242;11.654;2022-10-31T03:11:08;10.32;;;4.40;;
62509;SDS011;48558;48.242;11.654;2022-10-31T03:15:23;6.38;;;3.80;;
62509;SDS011;48558;48.242;11.654;2022-10-31T03:19:42;8.20;;;3.83;;
62509;SDS011;48558;48.242;11.654;2022-10-31T03:23:58;9.23;;;4.15;;
62509;SDS011;48558;48.242;11.654;2022-10-31T03:28:12;7.15;;;3.67;;
62509;SDS011;48558;48.242;11.654;2022-10-31T03:32:34;7.57;;;3.85;;
62509;SDS011;48558;48.242;11.654;2022-10-31T03:36:52;7.28;;;3.85;;
62509;SDS011;48558;48.242;11.654;2022-10-31T03:41:10;5.07;;;3.85;;
62509;SDS011;48558;48.242;11.654;2022-10-31T03:45:29;5.90;;;3.97;;
62509;SDS011;48558;48.242;11.654;2022-10-31T03:49:42;8.30;;;4.47;;
62509;SDS011;48558;48.242;11.654;2022-10-31T03:53:56;14.80;;;4.03;;
62509;SDS011;48558;48.242;11.654;2022-10-31T03:58:18;4.65;;;4.10;;
62509;SDS011;48558;48.242;11.654;2022-10-31T04:02:40;8.20;;;4.25;;
62509;SDS011;48558;48.242;11.654;2022-10-31T04:06:58;9.68;;;4.72;;
62509;SDS011;48558;48.242;11.654;2022-10-31T04:11:13;15.95;;;4.47;;
62509;SDS011;48558;48.242;11.654;2022-10-31T04:15:29;7.47;;;4.18;;
62509;SDS011;48558;48.242;11.654;2022-10-31T04:19:44;9.65;;;4.40;;
62509;SDS011;48558;48.242;11.654;2022-10-31T04:23:57;13.65;;;4.70;;
62509;SDS011;48558;48.242;11.654;2022-10-31T04:28:09;8.88;;;4.53;;
62509;SDS011;48558;48.242;11.654;2022-10-31T04:32:22;7.10;;;4.78;;
62509;SDS011;48558;48.242;11.654;2022-10-31T04:36:34;8.48;;;4.38;;
62509;SDS011;48558;48.242;11.654;2022-10-31T04:40:47;7.53;;;4.40;;
62509;SDS011;48558;48.242;11.654;2022-10-31T04:44:59;6.20;;;4.05;;
62509;SDS011;48558;48.242;11.654;2022-10-31T04:49:11;5.85;;;4.22;;
62509;SDS011;48558;48.242;11.654;2022-10-31T04:53:23;7.88;;;4.65;;
62509;SDS011;48558;48.242;11.654;2022-10-31T04:57:40;6.45;;;4.10;;
62509;SDS011;48558;48.242;11.654;2022-10-31T05:01:53;7.47;;;4.50;;
62509;SDS011;48558;48.242;11.654;2022-10-31T05:06:06;7.25;;;4.22;;
62509;SDS011;48558;48.242;11.654;2022-10-31T05:10:24;14.27;;;5.13;;
62509;SDS011;48558;48.242;11.654;2022-10-31T05:14:38;7.40;;;4.43;;
62509;SDS011;48558;48.242;11.654;2022-10-31T05:18:53;10.82;;;3.85;;
62509;SDS011;48558;48.242;11.654;2022-10-31T05:23:06;8.63;;;4.60;;
62509;SDS011;48558;48.242;11.654;2022-10-31T05:27:18;6.10;;;4.28;;
62509;SDS011;48558;48.242;11.654;2022-10-31T05:31:31;11.68;;;4.90;;
62509;SDS011;48558;48.242;11.654;2022-10-31T05:35:43;5.68;;;4.15;;
62509;SDS011;48558;48.242;11.654;2022-10-31T05:39:55;13.25;;;4.60;;
62509;SDS011;48558;48.242;11.654;2022-10-31T05:44:10;6.88;;;4.22;;
62509;SDS011;48558;48.242;11.654;2022-10-31T05:48:22;10.00;;;4.68;;
62509;SDS011;48558;48.242;11.654;2022-10-31T05:52:35;8.23;;;4.47;;
62509;SDS011;48558;48.242;11.654;2022-10-31T05:56:48;6.10;;;4.28;;
62509;SDS011;48558;48.242;11.654;2022-10-31T06:01:00;11.77;;;4.20;;
62509;SDS011;48558;48.242;11.654;2022-10-31T06:05:12;11.00;;;4.28;;
62509;SDS011;48558;48.242;11.654;2022-10-31T06:09:25;7.60;;;4.07;;
62509;SDS011;48558;48.242;11.654;2022-10-31T06:13:38;5.00;;;3.80;;
62509;SDS011;48558;48.242;11.654;2022-10-31T06:18:00;7.95;;;4.18;;
62509;SDS011;48558;48.242;11.654;2022-10-31T06:22:14;5.85;;;4.10;;
62509;SDS011;48558;48.242;11.654;2022-10-31T06:26:26;12.57;;;4.45;;
62509;SDS011;48558;48.242;11.654;2022-10-31T06:30:39;12.80;;;4.70;;
62509;SDS011;48558;48.242;11.654;2022-10-31T06:34:51;7.63;;;4.40;;
62509;SDS011;48558;48.242;11.654;2022-10-31T06:39:03;10.45;;;4.30;;
62509;SDS011;48558;48.242;11.654;2022-10-31T06:43:16;5.45;;;4.13;;
62509;SDS011;48558;48.242;11.654;2022-10-31T06:47:28;9.30;;;4.05;;
62509;SDS011;48558;48.242;11.654;2022-10-31T06:51:40;4.88;;;3.55;;
62509;SDS011;48558;48.242;11.654;2022-10-31T06:55:52;7.18;;;3.95;;
62509;SDS011;48558;48.242;11.654;2022-10-31T07:00:09;4.78;;;3.78;;
62509;SDS011;48558;48.242;11.654;2022-10-31T07:04:22;5.55;;;3.53;;
62509;SDS011;48558;48.242;11.654;2022-10-31T07:08:35;5.03;;;3.95;;
62509;SDS011;48558;48.242;11.654;2022-10-31T07:12:47;8.27;;;3.58;;
62509;SDS011;48558;48.242;11.654;2022-10-31T07:17:00;8.80;;;4.15;;
62509;SDS011;48558;48.242;11.654;2022-10-31T07:21:12;7.72;;;3.85;;
62509;SDS011;48558;48.242;11.654;2022-10-31T07:25:24;7.60;;;3.67;;
62509;SDS011;48558;48.242;11.654;2022-10-31T07:29:37;6.57;;;3.63;;
62509;SDS011;48558;48.242;11.654;2022-10-31T07:33:50;9.95;;;3.72;;
62509;SDS011;48558;48.242;11.654;2022-10-31T07:38:07;10.13;;;4.22;;
62509;SDS011;48558;48.242;11.654;2022-10-31T07:42:23;7.13;;;4.20;;
62509;SDS011;48558;48.242;11.654;2022-10-31T07:46:35;11.73;;;4.05;;
62509;SDS011;48558;48.242;11.654;2022-10-31T07:50:48;7.03;;;3.67;;
62509;SDS011;48558;48.242;11.654;2022-10-31T07:55:00;10.35;;;3.63;;
62509;SDS011;48558;48.242;11.654;2022-10-31T07:59:13;10.80;;;4.05;;
62509;SDS011;48558;48.242;11.654;2022-10-31T08:03:25;6.90;;;3.55;;
62509;SDS011;48558;48.242;11.654;2022-10-31T08:07:38;7.85;;;4.53;;
62509;SDS011;48558;48.242;11.654;2022-10-31T08:11:50;6.93;;;4.25;;
62509;SDS011;48558;48.242;11.654;2022-10-31T08:16:02;9.15;;;4.00;;
62509;SDS011;48558;48.242;11.654;2022-10-31T08:20:18;8.43;;;4.07;;
62509;SDS011;48558;48.242;11.654;2022-10-31T08:24:30;5.75;;;3.67;;
62509;SDS011;48558;48.242;11.654;2022-10-31T08:28:43;4.50;;;3.72;;
62509;SDS011;48558;48.242;11.654;2022-10-31T08:37:15;6.90;;;4.28;;
62509;SDS011;48558;48.242;11.654;2022-10-31T08:41:31;13.00;;;4.47;;
62509;SDS011;48558;48.242;11.654;2022-10-31T08:45:44;7.72;;;4.05;;
62509;SDS011;48558;48.242;11.654;2022-10-31T08:49:59;7.65;;;4.10;;
62509;SDS011;48558;48.242;11.654;2022-10-31T08:54:11;10.15;;;3.83;;
62509;SDS011;48558;48.242;11.654;2022-10-31T08:58:24;6.68;;;3.80;;
62509;SDS011;48558;48.242;11.654;2022-10-31T09:02:36;9.27;;;4.85;;
62509;SDS011;48558;48.242;11.654;2022-10-31T09:06:51;10.05;;;4.65;;
62509;SDS011;48558;48.242;11.654;2022-10-31T09:11:24;7.20;;;4.60;;
62509;SDS011;48558;48.242;11.654;2022-10-31T09:15:37;10.15;;;4.78;;
62509;SDS011;48558;48.242;11.654;2022-10-31T09:19:51;12.30;;;5.10;;
62509;SDS011;48558;48.242;11.654;2022-10-31T09:24:03;10.02;;;4.20;;
62509;SDS011;48558;48.242;11.654;2022-10-31T09:28:17;7.10;;;3.45;;
62509;SDS011;48558;48.242;11.654;2022-10-31T09:32:34;5.20;;;3.97;;
62509;SDS011;48558;48.242;11.654;2022-10-31T09:36:46;8.80;;;3.90;;
62509;SDS011;48558;48.242;11.654;2022-10-31T09:42:03;7.90;;;4.28;;
62509;SDS011;48558;48.242;11.654;2022-10-31T09:50:15;6.23;;;3.40;;
62509;SDS011;48558;48.242;11.654;2022-10-31T09:54:47;4.90;;;2.85;;
62509;SDS011;48558;48.242;11.654;2022-10-31T09:59:05;15.82;;;4.18;;
62509;SDS011;48558;48.242;11.654;2022-10-31T10:03:46;7.85;;;3.40;;
62509;SDS011;48558;48.242;11.654;2022-10-31T10:12:27;6.25;;;3.17;;
62509;SDS011;48558;48.242;11.654;2022-10-31T10:17:38;9.93;;;3.30;;
62509;SDS011;48558;48.242;11.654;2022-10-31T10:22:15;6.18;;;2.80;;
62509;SDS011;48558;48.242;11.654;2022-10-31T10:26:57;9.83;;;3.47;;
62509;SDS011;48558;48.242;11.654;2022-10-31T10:31:25;7.80;;;3.20;;
62509;SDS011;48558;48.242;11.654;2022-10-31T10:35:43;9.18;;;3.20;;
62509;SDS011;48558;48.242;11.654;2022-10-31T10:40:23;8.20;;;3.33;;
62509;SDS011;48558;48.242;11.654;2022-10-31T10:44:48;9.65;;;3.40;;
62509;SDS011;48558;48.242;11.654;2022-10-31T10:49:40;6.53;;;3.20;;
62509;SDS011;48558;48.242;11.654;2022-10-31T10:58:53;14.27;;;2.90;;
62509;SDS011;48558;48.242;11.654;2022-10-31T11:03:08;4.47;;;2.83;;
62509;SDS011;48558;48.242;11.654;2022-10-31T11:07:21;6.32;;;2.90;;
62509;SDS011;48558;48.242;11.654;2022-10-31T11:11:34;9.20;;;3.00;;
62509;SDS011;48558;48.242;11.654;2022-10-31T11:15:57;6.72;;;2.58;;
62509;SDS011;48558;48.242;11.654;2022-10-31T11:24:35;4.00;;;2.22;;
62509;SDS011;48558;48.242;11.654;2022-10-31T11:28:57;6.03;;;2.45;;
62509;SDS011;48558;48.242;11.654;2022-10-31T11:33:14;5.75;;;2.40;;
62509;SDS011;48558;48.242;11.654;2022-10-31T11:37:34;6.22;;;2.35;;
62509;SDS011;48558;48.242;11.654;2022-10-31T11:41:52;5.18;;;2.70;;
62509;SDS011;48558;48.242;11.654;2022-10-31T11:46:17;6.65;;;2.22;;
62509;SDS011;48558;48.242;11.654;2022-10-31T11:50:36;10.35;;;2.20;;
62509;SDS011;48558;48.242;11.654;2022-10-31T11:54:53;6.63;;;2.72;;
62509;SDS011;48558;48.242;11.654;2022-10-31T11:59:21;5.15;;;1.85;;
62509;SDS011;48558;48.242;11.654;2022-10-31T12:08:11;10.73;;;2.40;;
62509;SDS011;48558;48.242;11.654;2022-10-31T12:12:35;8.75;;;2.70;;
62509;SDS011;48558;48.242;11.654;2022-10-31T12:17:14;5.95;;;2.28;;
62509;SDS011;48558;48.242;11.654;2022-10-31T12:25:50;3.78;;;2.10;;
62509;SDS011;48558;48.242;11.654;2022-10-31T12:57:17;7.32;;;3.20;;
62509;SDS011;48558;48.242;11.654;2022-10-31T13:01:50;4.32;;;2.60;;
62509;SDS011;48558;48.242;11.654;2022-10-31T13:06:09;8.02;;;3.00;;
62509;SDS011;48558;48.242;11.654;2022-10-31T13:10:31;5.00;;;2.63;;
62509;SDS011;48558;48.242;11.654;2022-10-31T13:14:57;7.03;;;2.67;;
62509;SDS011;48558;48.242;11.654;2022-10-31T13:19:29;8.75;;;3.30;;
62509;SDS011;48558;48.242;11.654;2022-10-31T13:28:12;5.82;;;2.70;;
62509;SDS011;48558;48.242;11.654;2022-10-31T13:32:52;5.80;;;2.67;;
62509;SDS011;48558;48.242;11.654;2022-10-31T13:41:48;6.45;;;3.15;;
62509;SDS011;48558;48.242;11.654;2022-10-31T13:46:21;8.70;;;4.07;;
62509;SDS011;48558;48.242;11.654;2022-10-31T13:50:59;7.20;;;4.03;;
62509;SDS011;48558;48.242;11.654;2022-10-31T13:59:54;11.43;;;4.03;;
62509;SDS011;48558;48.242;11.654;2022-10-31T14:04:14;11.23;;;4.20;;
62509;SDS011;48558;48.242;11.654;2022-10-31T14:08:37;8.75;;;4.30;;
62509;SDS011;48558;48.242;11.654;2022-10-31T14:13:41;13.57;;;4.68;;
62509;SDS011;48558;48.242;11.654;2022-10-31T14:17:28;11.48;;;4.85;;
62509;SDS011;48558;48.242;11.654;2022-10-31T14:21:49;10.30;;;5.60;;
62509;SDS011;48558;48.242;11.654;2022-10-31T14:26:07;8.90;;;4.63;;
62509;SDS011;48558;48.242;11.654;2022-10-31T14:30:30;14.50;;;5.13;;
62509;SDS011;48558;48.242;11.654;2022-10-31T14:39:03;10.20;;;5.07;;
62509;SDS011;48558;48.242;11.654;2022-10-31T14:48:29;12.10;;;5.53;;
62509;SDS011;48558;48.242;11.654;2022-10-31T14:52:47;8.60;;;5.20;;
62509;SDS011;48558;48.242;11.654;2022-10-31T14:57:07;17.73;;;7.35;;
62509;SDS011;48558;48.242;11.654;2022-10-31T15:01:28;14.63;;;7.60;;
62509;SDS011;48558;48.242;11.654;2022-10-31T15:05:48;8.80;;;5.60;;
62509;SDS011;48558;48.242;11.654;2022-10-31T15:10:15;10.00;;;5.47;;
62509;SDS011;48558;48.242;11.654;2022-10-31T15:14:35;15.50;;;5.20;;
62509;SDS011;48558;48.242;11.654;2022-10-31T15:23:29;11.45;;;5.63;;
62509;SDS011;48558;48.242;11.654;2022-10-31T15:27:43;11.40;;;5.43;;
62509;SDS011;48558;48.242;11.654;2022-10-31T15:31:57;8.38;;;5.70;;
62509;SDS011;48558;48.242;11.654;2022-10-31T15:36:19;13.13;;;6.13;;
62509;SDS011;48558;48.242;11.654;2022-10-31T15:40:51;9.77;;;5.88;;
62509;SDS011;48558;48.242;11.654;2022-10-31T15:49:31;16.35;;;6.22;;
62509;SDS011;48558;48.242;11.654;2022-10-31T15:53:56;11.85;;;6.00;;
62509;SDS011;48558;48.242;11.654;2022-10-31T15:58:10;12.63;;;5.85;;
62509;SDS011;48558;48.242;11.654;2022-10-31T16:02:26;9.10;;;5.68;;
62509;SDS011;48558;48.242;11.654;2022-10-31T16:06:39;12.00;;;6.28;;
62509;SDS011;48558;48.242;11.654;2022-10-31T16:10:51;11.02;;;6.15;;
62509;SDS011;48558;48.242;11.654;2022-10-31T16:15:05;12.00;;;6.53;;
62509;SDS011;48558;48.242;11.654;2022-10-31T16:19:28;10.50;;;5.55;;
62509;SDS011;48558;48.242;11.654;2022-10-31T16:23:45;11.77;;;5.65;;
62509;SDS011;48558;48.242;11.654;2022-10-31T16:28:02;17.05;;;6.55;;
62509;SDS011;48558;48.242;11.654;2022-10-31T16:32:27;13.45;;;5.95;;
62509;SDS011;48558;48.242;11.654;2022-10-31T16:36:48;10.48;;;5.57;;
62509;SDS011;48558;48.242;11.654;2022-10-31T16:41:00;7.47;;;5.60;;
62509;SDS011;48558;48.242;11.654;2022-10-31T16:45:14;9.80;;;5.93;;
62509;SDS011;48558;48.242;11.654;2022-10-31T16:49:29;14.85;;;5.53;;
62509;SDS011;48558;48.242;11.654;2022-10-31T16:53:51;11.82;;;6.00;;
62509;SDS011;48558;48.242;11.654;2022-10-31T16:58:04;10.85;;;6.50;;
62509;SDS011;48558;48.242;11.654;2022-10-31T17:02:22;9.18;;;6.00;;
62509;SDS011;48558;48.242;11.654;2022-10-31T17:06:35;11.38;;;5.95;;
62509;SDS011;48558;48.242;11.654;2022-10-31T17:10:49;11.20;;;5.43;;
62509;SDS011;48558;48.242;11.654;2022-10-31T17:15:04;12.30;;;5.78;;
62509;SDS011;48558;48.242;11.654;2022-10-31T17:19:26;9.20;;;5.05;;
62509;SDS011;48558;48.242;11.654;2022-10-31T17:23:38;11.75;;;5.60;;
62509;SDS011;48558;48.242;11.654;2022-10-31T17:27:51;11.25;;;5.82;;
62509;SDS011;48558;48.242;11.654;2022-10-31T17:32:04;8.20;;;5.75;;
62509;SDS011;48558;48.242;11.654;2022-10-31T17:36:16;8.05;;;5.15;;
62509;SDS011;48558;48.242;11.654;2022-10-31T17:40:29;13.65;;;5.97;;
62509;SDS011;48558;48.242;11.654;2022-10-31T17:44:41;14.73;;;6.60;;
62509;SDS011;48558;48.242;11.654;2022-10-31T17:48:53;15.20;;;6.50;;
62509;SDS011;48558;48.242;11.654;2022-10-31T17:53:06;11.02;;;6.25;;
62509;SDS011;48558;48.242;11.654;2022-10-31T17:57:18;8.63;;;5.40;;
62509;SDS011;48558;48.242;11.654;2022-10-31T18:01:31;11.00;;;5.93;;
62509;SDS011;48558;48.242;11.654;2022-10-31T18:05:56;8.02;;;4.90;;
62509;SDS011;48558;48.242;11.654;2022-10-31T18:10:10;9.07;;;5.05;;
62509;SDS011;48558;48.242;11.654;2022-10-31T18:14:22;9.15;;;4.68;;
62509;SDS011;48558;48.242;11.654;2022-10-31T18:18:35;4.68;;;3.78;;
62509;SDS011;48558;48.242;11.654;2022-10-31T18:22:47;9.05;;;4.28;;
62509;SDS011;48558;48.242;11.654;2022-10-31T18:26:59;10.15;;;4.57;;
62509;SDS011;48558;48.242;11.654;2022-10-31T18:31:12;5.65;;;4.38;;
62509;SDS011;48558;48.242;11.654;2022-10-31T18:35:24;7.45;;;3.95;;
62509;SDS011;48558;48.242;11.654;2022-10-31T18:39:37;4.80;;;3.63;;
62509;SDS011;48558;48.242;11.654;2022-10-31T18:43:49;6.65;;;3.88;;
62509;SDS011;48558;48.242;11.654;2022-10-31T18:48:02;6.13;;;3.55;;
62509;SDS011;48558;48.242;11.654;2022-10-31T18:52:15;9.63;;;3.78;;
62509;SDS011;48558;48.242;11.654;2022-10-31T18:56:28;5.80;;;3.45;;
62509;SDS011;48558;48.242;11.654;2022-10-31T19:00:42;7.90;;;3.80;;
62509;SDS011;48558;48.242;11.654;2022-10-31T19:04:56;4.35;;;3.20;;
62509;SDS011;48558;48.242;11.654;2022-10-31T19:09:09;3.65;;;2.92;;
62509;SDS011;48558;48.242;11.654;2022-10-31T19:13:22;3.65;;;3.35;;
62509;SDS011;48558;48.242;11.654;2022-10-31T19:17:34;6.72;;;3.38;;
62509;SDS011;48558;48.242;11.654;2022-10-31T19:21:46;5.72;;;3.65;;
62509;SDS011;48558;48.242;11.654;2022-10-31T19:25:59;8.35;;;4.00;;
62509;SDS011;48558;48.242;11.654;2022-10-31T19:30:13;4.10;;;2.97;;
62509;SDS011;48558;48.242;11.654;2022-10-31T19:34:32;4.95;;;3.28;;
62509;SDS011;48558;48.242;11.654;2022-10-31T19:38:45;4.95;;;3.20;;
62509;SDS011;48558;48.242;11.654;2022-10-31T19:42:58;4.18;;;3.40;;
62509;SDS011;48558;48.242;11.654;2022-10-31T19:47:11;4.88;;;4.38;;
62509;SDS011;48558;48.242;11.654;2022-10-31T19:51:23;6.25;;;4.63;;
62509;SDS011;48558;48.242;11.654;2022-10-31T19:55:39;6.95;;;4.30;;
62509;SDS011;48558;48.242;11.654;2022-10-31T19:59:52;6.10;;;4.45;;
62509;SDS011;48558;48.242;11.654;2022-10-31T20:04:05;4.85;;;4.30;;
62509;SDS011;48558;48.242;11.654;2022-10-31T20:08:18;5.65;;;4.20;;
62509;SDS011;48558;48.242;11.654;2022-10-31T20:12:32;8.70;;;4.60;;
62509;SDS011;48558;48.242;11.654;2022-10-31T20:16:45;17.10;;;4.82;;
62509;SDS011;48558;48.242;11.654;2022-10-31T20:21:05;8.43;;;4.70;;
62509;SDS011;48558;48.242;11.654;2022-10-31T20:25:19;7.10;;;4.63;;
62509;SDS011;48558;48.242;11.654;2022-10-31T20:29:32;11.07;;;4.85;;
62509;SDS011;48558;48.242;11.654;2022-10-31T20:33:44;5.22;;;4.07;;
62509;SDS011;48558;48.242;11.654;2022-10-31T20:37:57;4.10;;;3.70;;
62509;SDS011;48558;48.242;11.654;2022-10-31T20:42:09;7.32;;;4.40;;
62509;SDS011;48558;48.242;11.654;2022-10-31T20:46:25;4.50;;;4.10;;
62509;SDS011;48558;48.242;11.654;2022-10-31T20:50:38;11.45;;;5.45;;
62509;SDS011;48558;48.242;11.654;2022-10-31T20:54:50;7.85;;;5.15;;
62509;SDS011;48558;48.242;11.654;2022-10-31T20:59:03;7.78;;;5.70;;
62509;SDS011;48558;48.242;11.654;2022-10-31T21:03:15;10.40;;;5.60;;
62509;SDS011;48558;48.242;11.654;2022-10-31T21:07:29;7.95;;;5.88;;
62509;SDS011;48558;48.242;11.654;2022-10-31T21:11:42;11.18;;;6.43;;
62509;SDS011;48558;48.242;11.654;2022-10-31T21:15:58;10.25;;;6.45;;
62509;SDS011;48558;48.242;11.654;2022-10-31T21:20:11;9.85;;;5.85;;
62509;SDS011;48558;48.242;11.654;2022-10-31T21:24:24;9.45;;;6.50;;
62509;SDS011;48558;48.242;11.654;2022-10-31T21:28:39;7.75;;;5.82;;
62509;SDS011;48558;48.242;11.654;2022-10-31T21:32:52;10.32;;;6.45;;
62509;SDS011;48558;48.242;11.654;2022-10-31T21:37:04;21.77;;;6.88;;
62509;SDS011;48558;48.242;11.654;2022-10-31T21:41:17;11.38;;;6.25;;
62509;SDS011;48558;48.242;11.654;2022-10-31T21:45:30;9.45;;;6.00;;
62509;SDS011;48558;48.242;11.654;2022-10-31T21:49:43;8.27;;;5.60;;
62509;SDS011;48558;48.242;11.654;2022-10-31T21:53:55;6.38;;;5.38;;
62509;SDS011;48558;48.242;11.654;2022-10-31T21:58:27;10.38;;;5.65;;
62509;SDS011;48558;48.242;11.654;2022-10-31T22:02:46;8.38;;;6.28;;
62509;SDS011;48558;48.242;11.654;2022-10-31T22:06:59;6.60;;;5.93;;
62509;SDS011;48558;48.242;11.654;2022-10-31T22:11:13;11.32;;;6.28;;
62509;SDS011;48558;48.242;11.654;2022-10-31T22:15:26;8.07;;;5.43;;
62509;SDS011;48558;48.242;11.654;2022-10-31T22:19:39;9.00;;;6.28;;
62509;SDS011;48558;48.242;11.654;2022-10-31T22:23:52;11.63;;;5.85;;
62509;SDS011;48558;48.242;11.654;2022-10-31T22:28:06;15.40;;;6.22;;
62509;SDS011;48558;48.242;11.654;2022-10-31T22:32:18;6.95;;;5.13;;
62509;SDS011;48558;48.242;11.654;2022-10-31T22:36:31;7.45;;;5.80;;
62509;SDS011;48558;48.242;11.654;2022-10-31T22:40:43;7.85;;;5.07;;
62509;SDS011;48558;48.242;11.654;2022-10-31T22:44:55;7.57;;;5.72;;
62509;SDS011;48558;48.242;11.654;2022-10-31T22:49:12;8.65;;;6.18;;
62509;SDS011;48558;48.242;11.654;2022-10-31T22:53:25;11.02;;;6.38;;
62509;SDS011;48558;48.242;11.654;2022-10-31T22:57:38;11.15;;;6.93;;
62509;SDS011;48558;48.242;11.654;2022-10-31T23:01:50;12.55;;;6.15;;
62509;SDS011;48558;48.242;11.654;2022-10-31T23:06:03;7.18;;;5.13;;
62509;SDS011;48558;48.242;11.654;2022-10-31T23:10:17;11.10;;;4.80;;
62509;SDS011;48558;48.242;11.654;2022-10-31T23:14:29;5.95;;;5.00;;
62509;SDS011;48558;48.242;11.654;2022-10-31T23:18:41;5.80;;;4.80;;
62509;SDS011;48558;48.242;11.654;2022-10-31T23:23:00;7.45;;;5.43;;
62509;SDS011;48558;48.242;11.654;2022-10-31T23:27:20;7.15;;;5.32;;
62509;SDS011;48558;48.242;11.654;2022-10-31T23:31:34;7.15;;;5.38;;
62509;SDS011;48558;48.242;11.654;2022-10-31T23:35:46;10.02;;;6.10;;
62509;SDS011;48558;48.242;11.654;2022-10-31T23:39:59;7.22;;;5.50;;
62509;SDS011;48558;48.242;11.654;2022-10-31T23:44:11;10.07;;;6.13;;
62509;SDS011;48558;48.242;11.654;2022-10-31T23:48:24;9.52;;;6.05;;
62509;SDS011;48558;48.242;11.654;2022-10-31T23:52:36;9.98;;;6.85;;
62509;SDS011;48558;48.242;11.654;2022-10-31T23:56:48;7.85;;;5.88;;
